Lake Fork, IL (62541)

6:26 AM CDT on July 06, 2015 (GMT -0500)
Logan County Prairie | | Change Station
CLOSE
Current Station
Personal Weather Station
Location: Mount Pulaski, IL
Elevation: 604 ft
Nearby Weather Stations

Elev 604 ft 39.93 °N, 89.27 °W | Updated 4 seconds ago

Clear
Clear
66.4 °F
Feels Like 66.4 °F
N
3.1
Wind Variable Wind from NNW
Gusts 4.9 mph

Today
High -- | Low -- °F
--% Chance of Precip.
Yesterday
High -- | Low -- °F
Precip. -- in
5:34 AM 8:29 PM
Waning Gibbous, 76% visible
Pressure 29.99 in
Visibility 3.0 miles
Clouds Clear
Dew Point 66 °F
Humidity 98%
Rainfall 0.00 in
Snow Depth Not available.
UV 0 out of 12
Pollen 4.10 out of 12
Air Quality Not available.
Flu Activity Not available.
METAR KAAA 061115Z AUTO 16004KT 3SM BR CLR 19/18 A2999 RMK AO2 T01920180

More Conditions Fewer Conditions

Pressure 29.99 in
Visibility 3.0 miles
Clouds Clear
Dew Point 66 °F
Humidity 98%
Rainfall 0.00 in
Snow Depth Not available.
UV 0 out of 12
Pollen 4.10 out of 12
Air Quality Not available.
Flu Activity Not available.
METAR KAAA 061115Z AUTO 16004KT 3SM BR CLR 19/18 A2999 RMK AO2 T01920180

More Conditions Fewer Conditions

10-Day Weather Forecast

×

Almanac

Astronomy

Jul. 06, 2015 Rise Set
Actual Time
Civil Twilight
Nautical Twilight
Astronomical Twilight
Moon
Length of Visible Light
Length of Day
Tomorrow will be .
, % of the Moon is Illuminated

Today's Extremes

State Highs State Lows

Community

WunderPhotos

Upload Photos

1,835,535 photos uploaded!

WunderBlogs® & News

Nearby

Air Quality

  Air Quality AQ Index Pollutant
Not available.

Snow Depth

Station Depth Elevation

Earthquake Activity

City Distance Mag. Time & Date
Minimum magnitude displayed is 2.5.

Coastal Water Temperatures

Place Temperature

Stations

Nearby Weather Stations

Station Location Temp. Windchill Dew Point Humidity Wind Precip. Elev Updated Type